No particular awareness of the weather is required.    There are no Weather-warnings


Meteo18 Weather Cam more information Meteo18 Weather Cam


Thunder radar more information blitzortung!


Rain radar more information rain snow radar


Visit our other weather sites:

Template documentation
and downloads

And another site



Weather Underground History page Text

Daily Summary for February 13, 2018 Units:  Metric    English   Both
« Previous Day
Next Day »
Daily Weekly Monthly Yearly Custom
  High: Low: Average:
Temperature: -17.8 °C -20.4 °C -18.3 °C
Dew Point: -17.8 °C -20.8 °C -19.2 °C
Humidity: Humidity % 66 % 90 %
Wind Speed: 0 km/h 0 km/h 4.3 km/h
Wind Gust: 0 km/h - -
Wind:- - SSE
Pressure: 0 hPa 34086.9 hPa -
Precipitation: 0 mm    
Historical Graphs
 
 
Tabular Data for February 13, 2018
Time Temperature Dew Point Pressure Wind Wind Speed Wind Gust Humidity Rainfall Rate (Hourly)
-17.8 °C -17.8 °C 0 hPa Calm     Humidity % 0 mm
00:05 -19.1 °C -19.7 °C 34510.1 hPa Calm     92 % 0 mm
00:11 -18.9 °C -19.5 °C 34510.1 hPa Calm     93 % 0 mm
00:17 -18.9 °C -19.6 °C 34510.1 hPa Calm     92 % 0 mm
00:23 -18.9 °C -19.5 °C 34510.1 hPa Calm     93 % 0 mm
00:29 -18.9 °C -19.6 °C 34510.1 hPa Calm     92 % 0 mm
00:35 -19 °C -19.6 °C 34510.1 hPa Calm     92 % 0 mm
00:41 -19.1 °C -19.7 °C 34510.1 hPa Calm     92 % 0 mm
00:47 -19.1 °C -19.7 °C 34510.1 hPa Calm     93 % 0 mm
00:53 -19.2 °C -19.8 °C 34510.1 hPa Calm   2.6 km/h 93 % 0 mm
00:59 -19.2 °C -19.8 °C 34510.1 hPa Calm     93 % 0 mm
01:05 -19.2 °C -19.8 °C 34496.6 hPa Calm     93 % 0 mm
01:11 -19.3 °C -19.9 °C 34496.6 hPa Calm     93 % 0 mm
01:18 -19.4 °C -19.9 °C 34496.6 hPa Calm   2.6 km/h 93 % 0 mm
01:24 -19.3 °C -19.8 °C 34496.6 hPa Calm     94 % 0 mm
01:30 -19.4 °C -19.8 °C 34496.6 hPa Calm     94 % 0 mm
01:36 -19.4 °C -19.9 °C 34496.6 hPa Calm     94 % 0 mm
01:42 -19.6 °C -20 °C 34496.6 hPa Calm     94 % 0 mm
01:48 -19.6 °C -20 °C 34496.6 hPa Calm     94 % 0 mm
01:54 -19.6 °C -20 °C 34486.4 hPa Calm     94 % 0 mm
02:00 -19.6 °C -20 °C 34486.4 hPa Calm     94 % 0 mm
02:06 -19.6 °C -20.1 °C 34486.4 hPa Calm     94 % 0 mm
02:12 -19.6 °C -19.9 °C 34486.4 hPa Calm     95 % 0 mm
02:18 -19.6 °C -20.1 °C 34486.4 hPa Calm     94 % 0 mm
02:24 -19.7 °C -20.1 °C 34476.3 hPa Calm     95 % 0 mm
02:30 -19.7 °C -20.1 °C 34476.3 hPa Calm     95 % 0 mm
02:36 -19.7 °C -20.1 °C 34476.3 hPa Calm     95 % 0 mm
02:42 -19.7 °C -20.1 °C 34476.3 hPa Calm     95 % 0 mm
02:48 -19.7 °C -20.1 °C 34476.3 hPa Calm     95 % 0 mm
02:54 -19.7 °C -20.1 °C 34476.3 hPa Calm     95 % 0 mm
03:00 -19.7 °C -20.1 °C 34462.7 hPa Calm     95 % 0 mm
03:06 -19.8 °C -20.2 °C 34462.7 hPa Calm     95 % 0 mm
03:12 -19.8 °C -20.2 °C 34462.7 hPa Calm     95 % 0 mm
03:18 -19.7 °C -20.1 °C 34462.7 hPa Calm     95 % 0 mm
03:24 -19.8 °C -20.2 °C 34462.7 hPa Calm     95 % 0 mm
03:30 -19.8 °C -20.2 °C 34462.7 hPa Calm     95 % 0 mm
03:36 -19.8 °C -20.2 °C 34452.6 hPa Calm     95 % 0 mm
03:42 -19.8 °C -20.2 °C 34452.6 hPa Calm     95 % 0 mm
03:48 -19.9 °C -20.3 °C 34452.6 hPa Calm   2.6 km/h 95 % 0 mm
03:54 -19.9 °C -20.3 °C 34452.6 hPa Calm   2.6 km/h 95 % 0 mm
04:00 -19.9 °C -20.3 °C 34452.6 hPa Calm     95 % 0 mm
04:06 -20 °C -20.4 °C 34452.6 hPa Calm     95 % 0 mm
04:12 -20.1 °C -20.5 °C 34442.4 hPa Calm     95 % 0 mm
04:18 -20 °C -20.3 °C 34442.4 hPa Calm     96 % 0 mm
04:24 -19.9 °C -20.2 °C 34428.8 hPa Calm     96 % 0 mm
04:30 -19.9 °C -20.2 °C 34428.8 hPa Calm     96 % 0 mm
04:36 -19.9 °C -20.2 °C 34428.8 hPa Calm     96 % 0 mm
04:42 -19.9 °C -20.2 °C 34428.8 hPa Calm     96 % 0 mm
04:48 -19.9 °C -20.2 °C 34428.8 hPa Calm     96 % 0 mm
04:54 -20 °C -20.4 °C 34418.7 hPa Calm     95 % 0 mm
05:00 -20.1 °C -20.4 °C 34418.7 hPa Calm     95 % 0 mm
05:06 -20.2 °C -20.6 °C 34418.7 hPa Calm     95 % 0 mm
05:12 -20.2 °C -20.6 °C 34405.1 hPa Calm     95 % 0 mm
05:18 -20.2 °C -20.5 °C 34405.1 hPa Calm     96 % 0 mm
05:24 -20.2 °C -20.5 °C 34405.1 hPa Calm     96 % 0 mm
05:30 -20.3 °C -20.7 °C 34405.1 hPa Calm     95 % 0 mm
05:36 -20.4 °C -20.7 °C 34395 hPa Calm     96 % 0 mm
05:42 -20.3 °C -20.6 °C 34395 hPa Calm     96 % 0 mm
05:49 -20.3 °C -20.6 °C 34395 hPa Calm     96 % 0 mm
05:55 -20.4 °C -20.7 °C 34395 hPa Calm     96 % 0 mm
06:01 -20.3 °C -20.6 °C 34395 hPa Calm     96 % 0 mm
06:07 -20.3 °C -20.6 °C 34384.8 hPa Calm     96 % 0 mm
06:13 -20.3 °C -20.6 °C 34384.8 hPa Calm     96 % 0 mm
06:19 -20.4 °C -20.7 °C 34384.8 hPa Calm     96 % 0 mm
06:25 -20.3 °C -20.6 °C 34371.3 hPa Calm     96 % 0 mm
06:31 -20.2 °C -20.5 °C 34371.3 hPa Calm     96 % 0 mm
06:37 -20.2 °C -20.4 °C 34371.3 hPa Calm     96 % 0 mm
06:43 -20.3 °C -20.6 °C 34361.1 hPa Calm     96 % 0 mm
06:49 -20.2 °C -20.5 °C 34361.1 hPa Calm     96 % 0 mm
06:55 -20.4 °C -20.7 °C 34361.1 hPa Calm     96 % 0 mm
07:01 -20.3 °C -20.6 °C 34347.6 hPa Calm     96 % 0 mm
07:07 -20.3 °C -20.6 °C 34347.6 hPa Calm     96 % 0 mm
07:13 -20.4 °C -20.8 °C 34347.6 hPa Calm     95 % 0 mm
07:19 -20.4 °C -20.7 °C 34347.6 hPa Calm     96 % 0 mm
07:25 -20.4 °C -20.7 °C 34337.4 hPa Calm     96 % 0 mm
07:31 -20.4 °C -20.7 °C 34337.4 hPa Calm     96 % 0 mm
07:37 -20.4 °C -20.7 °C 34337.4 hPa SW 2.3 km/h 2.6 km/h 96 % 0 mm
07:44 -20.3 °C -20.6 °C 34337.4 hPa Calm   2.6 km/h 96 % 0 mm
07:49 -20.2 °C -20.5 °C 34337.4 hPa Calm   2.6 km/h 96 % 0 mm
07:56 -20.2 °C -20.4 °C 34327.3 hPa Calm     96 % 0 mm
08:02 -20.2 °C -20.4 °C 34327.3 hPa Calm     96 % 0 mm
08:08 -20.2 °C -20.6 °C 34327.3 hPa Calm   2.6 km/h 95 % 0 mm
08:14 -20.1 °C -20.5 °C 34327.3 hPa Calm   2.6 km/h 95 % 0 mm
08:20 -20.1 °C -20.4 °C 34327.3 hPa Calm     95 % 0 mm
08:26 -19.9 °C -20.3 °C 34327.3 hPa Calm   2.6 km/h 95 % 0 mm
08:32 -19.9 °C -20.3 °C 34327.3 hPa SW 5.1 km/h 5.1 km/h 94 % 0 mm
08:38 -19.8 °C -20.2 °C 34327.3 hPa SSW 5.1 km/h 7.7 km/h 94 % 0 mm
08:44 -19.6 °C -20.1 °C 34327.3 hPa South 2.3 km/h 5.1 km/h 94 % 0 mm
08:50 -19.5 °C -20.1 °C 34313.7 hPa Calm   5.1 km/h 93 % 0 mm
08:56 -19.3 °C -19.8 °C 34313.7 hPa Calm   10.3 km/h 93 % 0 mm
09:02 -19.1 °C -19.7 °C 34303.6 hPa SE 5.1 km/h 10.3 km/h 92 % 0 mm
09:08 -19.1 °C -19.8 °C 34293.4 hPa SE 5.1 km/h 10.3 km/h 91 % 0 mm
09:14 -18.8 °C -19.6 °C 34293.4 hPa Calm   5.1 km/h 91 % 0 mm
09:20 -18.6 °C -19.3 °C 34293.4 hPa SSE 2.3 km/h 10.3 km/h 91 % 0 mm
09:26 -18.5 °C -19.4 °C 34293.4 hPa South 5.1 km/h 18.2 km/h 89 % 0 mm
09:32 -18.4 °C -19.3 °C 34293.4 hPa SSW 5.1 km/h 15.6 km/h 89 % 0 mm
09:38 -18.3 °C -19.2 °C 34293.4 hPa SE 5.1 km/h 10.3 km/h 88 % 0 mm
09:48 -18.1 °C -19.1 °C 34293.4 hPa SSW 2.3 km/h 10.3 km/h 88 % 0 mm
09:54 -18 °C -19.1 °C 34279.9 hPa SSW 5.1 km/h 12.9 km/h 87 % 0 mm
10:00 -18 °C -19.2 °C 34279.9 hPa SSE 2.3 km/h 12.9 km/h 86 % 0 mm
10:06 -18 °C -19.2 °C 34279.9 hPa SE 17.9 km/h 23.3 km/h 85 % 0 mm
10:12 -17.9 °C -19.1 °C 34269.7 hPa SSE 5.1 km/h 18.2 km/h 85 % 0 mm
10:18 -17.7 °C -19.1 °C 34269.7 hPa SE 7.6 km/h 15.6 km/h 84 % 0 mm
10:24 -17.6 °C -18.9 °C 34269.7 hPa South 5.1 km/h 15.6 km/h 84 % 0 mm
10:30 -17.6 °C -18.9 °C 34256.2 hPa SE 20.9 km/h 20.9 km/h 84 % 0 mm
10:36 -17.6 °C -19.1 °C 34256.2 hPa SSW 10.3 km/h 25.9 km/h 82 % 0 mm
10:42 -17.5 °C -18.9 °C 34256.2 hPa South 17.9 km/h 23.3 km/h 83 % 0 mm
10:48 -17.4 °C -19.2 °C 34256.2 hPa SSE 10.3 km/h 28.5 km/h 80 % 0 mm
10:54 -17.4 °C -19.1 °C 34246 hPa ESE 17.9 km/h 25.9 km/h 80 % 0 mm
11:00 -17.3 °C -19.1 °C 34246 hPa SSE 5.1 km/h 28.5 km/h 80 % 0 mm
11:06 -17.3 °C -18.9 °C 34246 hPa South 5.1 km/h 7.7 km/h 81 % 0 mm
11:12 -17.2 °C -18.9 °C 34246 hPa SW 12.7 km/h 20.8 km/h 80 % 0 mm
11:18 -17.2 °C -18.9 °C 34235.8 hPa SE 5.1 km/h 15.6 km/h 80 % 0 mm
11:24 -17.1 °C -19 °C 34235.8 hPa SSE 12.7 km/h 36.2 km/h 78 % 0 mm
11:30 -17.1 °C -18.9 °C 34222.3 hPa SE 7.6 km/h 23.3 km/h 78 % 0 mm
11:36 -17 °C -19 °C 34222.3 hPa SE 5.1 km/h 20.8 km/h 77 % 0 mm
11:42 -16.9 °C -18.9 °C 34222.3 hPa South 10.3 km/h 23.3 km/h 77 % 0 mm
11:48 -16.8 °C -18.9 °C 34222.3 hPa SSE 15.6 km/h 18.2 km/h 76 % 0 mm
11:54 -16.8 °C -19.1 °C 34222.3 hPa SSE 15.6 km/h 33.6 km/h 74 % 0 mm
12:00 -16.7 °C -18.9 °C 34212.1 hPa SE 7.6 km/h 20.8 km/h 74 % 0 mm
12:06 -16.6 °C -18.9 °C 34212.1 hPa ESE 7.6 km/h 20.8 km/h 74 % 0 mm
12:12 -16.6 °C -18.9 °C 34212.1 hPa SSW 10.3 km/h 23.3 km/h 73 % 0 mm
12:18 -16.5 °C -18.9 °C 34198.6 hPa SE 5.1 km/h 12.9 km/h 73 % 0 mm
12:24 -16.5 °C -19.1 °C 34198.6 hPa SSE 5.1 km/h 20.8 km/h 71 % 0 mm
12:30 -16.6 °C -19.1 °C 34188.4 hPa SE 26.2 km/h 28.5 km/h 72 % 0 mm
12:36 -16.6 °C -19.1 °C 34188.4 hPa SE 10.3 km/h 23.3 km/h 72 % 0 mm
12:42 -16.6 °C -19.2 °C 34178.3 hPa ESE 12.7 km/h 28.5 km/h 71 % 0 mm
12:48 -16.6 °C -19.1 °C 34178.3 hPa SE 17.9 km/h 23.3 km/h 72 % 0 mm
12:54 -16.5 °C -19.1 °C 34164.7 hPa SSE 26.2 km/h 36.2 km/h 71 % 0 mm
13:00 -16.5 °C -19.3 °C 34164.7 hPa SE 10.3 km/h 31.1 km/h 69 % 0 mm
13:06 -16.5 °C -19.2 °C 34154.6 hPa SE 10.3 km/h 23.3 km/h 70 % 0 mm
13:12 -16.5 °C -19.4 °C 34144.4 hPa SSE 10.3 km/h 23.3 km/h 68 % 0 mm
13:18 -16.4 °C -19.4 °C 34154.6 hPa East 7.6 km/h 25.9 km/h 68 % 0 mm
13:24 -16.4 °C -19.4 °C 34144.4 hPa SE 10.3 km/h 25.9 km/h 68 % 0 mm
13:30 -16.4 °C -19.5 °C 34144.4 hPa ESE 10.3 km/h 28.5 km/h 67 % 0 mm
13:36 -16.4 °C -19.5 °C 34144.4 hPa SE 5.1 km/h 18.2 km/h 67 % 0 mm
13:42 -16.4 °C -19.5 °C 34130.9 hPa SE 2.3 km/h 15.6 km/h 67 % 0 mm
13:48 -16.4 °C -19.4 °C 34130.9 hPa SE 10.3 km/h 23.3 km/h 67 % 0 mm
13:54 -16.4 °C -19.4 °C 34130.9 hPa SE 5.1 km/h 25.9 km/h 67 % 0 mm
14:00 -16.4 °C -19.6 °C 34130.9 hPa SE 7.6 km/h 33.6 km/h 66 % 0 mm
14:06 -16.4 °C -19.4 °C 34130.9 hPa South 12.7 km/h 25.9 km/h 67 % 0 mm
14:12 -16.4 °C -19.5 °C 34130.9 hPa SSE 7.6 km/h 25.9 km/h 67 % 0 mm
14:18 -16.4 °C -19.6 °C 34130.9 hPa SSW 15.6 km/h 28.5 km/h 66 % 0 mm
14:24 -16.5 °C -19.4 °C 34130.9 hPa South 7.6 km/h 36.2 km/h 68 % 0 mm
14:30 -16.4 °C -19.2 °C 34120.7 hPa SSE 17.9 km/h 18.2 km/h 70 % 0 mm
14:36 -16.4 °C -19.4 °C 34120.7 hPa SSW 10.3 km/h 25.9 km/h 68 % 0 mm
14:42 -16.4 °C -19.3 °C 34120.7 hPa South 12.7 km/h 33.6 km/h 69 % 0 mm
14:48 -16.4 °C -19.2 °C 34120.7 hPa SSW 20.9 km/h 31.1 km/h 70 % 0 mm
14:54 -16.4 °C -19.2 °C 34107.2 hPa South 20.9 km/h 33.6 km/h 70 % 0 mm
15:01 -16.4 °C -19.2 °C 34107.2 hPa SW 26.2 km/h 28.5 km/h 70 % 0 mm
15:07 -16.4 °C -19.3 °C 34107.2 hPa South 10.3 km/h 18.2 km/h 69 % 0 mm
15:13 -16.4 °C -19.2 °C 34107.2 hPa SE 12.7 km/h 28.5 km/h 70 % 0 mm
15:19 -16.5 °C -18.9 °C 34107.2 hPa SSW 28.5 km/h 49.2 km/h 73 % 0 mm
15:25 -16.8 °C -18.7 °C 34107.2 hPa SW 31.4 km/h 38.8 km/h 78 % 0 mm
15:31 -17 °C -18.4 °C 34107.2 hPa SSW 23 km/h 38.8 km/h 83 % 0 mm
15:37 -17.1 °C -18.3 °C 34107.2 hPa SSW 15.6 km/h 36.2 km/h 85 % 0 mm
15:43 -17.2 °C -18.3 °C 34107.2 hPa South 15.6 km/h 36.2 km/h 87 % 0 mm
15:49 -17.6 °C -18.3 °C 34107.2 hPa SSW 15.6 km/h 28.5 km/h 91 % 0 mm
15:55 -17.7 °C -18.2 °C 34107.2 hPa SSW 20.9 km/h 23.3 km/h 93 % 0 mm
16:01 -17.7 °C -18.2 °C 34107.2 hPa SSW 7.6 km/h 18.2 km/h 94 % 0 mm
16:07 -17.8 °C -18.2 °C 34107.2 hPa SSW 15.6 km/h 18.2 km/h 94 % 0 mm
16:13 -17.8 °C -18.2 °C 34107.2 hPa SSE 2.3 km/h 15.6 km/h 95 % 0 mm
16:19 -17.8 °C -18.2 °C 34107.2 hPa South 2.3 km/h 10.3 km/h 95 % 0 mm
16:25 -17.8 °C -18.2 °C 34107.2 hPa South 7.6 km/h 7.7 km/h 95 % 0 mm
16:31 -17.8 °C -18.2 °C 34107.2 hPa SSE 7.6 km/h 12.9 km/h 95 % 0 mm
16:37 -17.8 °C -18.1 °C 34107.2 hPa Calm   7.7 km/h 96 % 0 mm
16:43 -17.8 °C -18.1 °C 34097 hPa Calm   12.9 km/h 96 % 0 mm
16:49 -17.8 °C -18.1 °C 34097 hPa SE 2.3 km/h 15.6 km/h 96 % 0 mm
16:55 -17.8 °C -18.1 °C 34097 hPa East 7.6 km/h 15.6 km/h 96 % 0 mm
17:01 -17.8 °C -18.1 °C 34097 hPa ESE 7.6 km/h 12.9 km/h 96 % 0 mm
17:07 -17.8 °C -18.1 °C 34097 hPa SE 10.3 km/h 10.3 km/h 96 % 0 mm
17:13 -17.8 °C -18.1 °C 34086.9 hPa East 10.3 km/h 15.6 km/h 96 % 0 mm
17:19 -17.8 °C -18.1 °C 34086.9 hPa East 17.9 km/h 18.2 km/h 96 % 0 mm
17:25 -17.8 °C -18.1 °C 34086.9 hPa SSE 5.1 km/h 15.6 km/h 96 % 0 mm
17:31 -17.8 °C -18.1 °C 34086.9 hPa SSE 10.3 km/h 12.9 km/h 96 % 0 mm
17:37 -17.8 °C -18.1 °C 34086.9 hPa SSE 2.3 km/h 7.7 km/h 96 % 0 mm
17:43 -17.8 °C -18.1 °C 34086.9 hPa SE 2.3 km/h 10.3 km/h 96 % 0 mm
17:49 -17.8 °C -18.1 °C 34097 hPa SSE 7.6 km/h 10.3 km/h 96 % 0 mm
17:55 -17.8 °C -18.1 °C 34097 hPa Calm   10.3 km/h 96 % 0 mm
18:01 -17.8 °C -18.1 °C 34097 hPa SSE 7.6 km/h 12.9 km/h 96 % 0 mm
18:07 -17.8 °C -18.1 °C 34097 hPa SSE 7.6 km/h 10.3 km/h 96 % 0 mm
18:13 -17.8 °C -18.1 °C 34086.9 hPa Calm   7.7 km/h 96 % 0 mm
18:19 -17.8 °C -18.2 °C 34086.9 hPa South 2.3 km/h 12.9 km/h 96 % 0 mm
18:25 -17.8 °C -18.2 °C 34086.9 hPa SE 5.1 km/h 12.9 km/h 96 % 0 mm
18:31 -17.8 °C -18.1 °C 34097 hPa SSE 2.3 km/h 18.2 km/h 96 % 0 mm
18:37 -17.8 °C -18.1 °C 34097 hPa SSE 2.3 km/h 12.9 km/h 96 % 0 mm
18:43 -17.8 °C -18.1 °C 34097 hPa SSE 2.3 km/h 5.1 km/h 96 % 0 mm
18:49 -17.8 °C -18.1 °C 34097 hPa Calm   7.7 km/h 96 % 0 mm
18:55 -17.8 °C -18.1 °C 34097 hPa SSE 2.3 km/h 7.7 km/h 96 % 0 mm
19:01 -17.8 °C -18.1 °C 34097 hPa SE 2.3 km/h 7.7 km/h 96 % 0 mm
19:07 -17.8 °C -18.1 °C 34097 hPa SSE 2.3 km/h 5.1 km/h 96 % 0 mm
19:13 -17.8 °C -18.1 °C 34097 hPa ESE 7.6 km/h 7.7 km/h 96 % 0 mm
19:19 -17.8 °C -18.1 °C 34097 hPa South 2.3 km/h 12.9 km/h 96 % 0 mm
19:25 -17.8 °C -18.1 °C 34097 hPa SW 10.3 km/h 15.6 km/h 96 % 0 mm
19:31 -17.8 °C -18.1 °C 34097 hPa SSE 10.3 km/h 15.6 km/h 96 % 0 mm
19:37 -17.8 °C -18.1 °C 34097 hPa South 5.1 km/h 7.7 km/h 96 % 0 mm
19:43 -17.8 °C -18 °C 34097 hPa Calm   10.3 km/h 97 % 0 mm
19:49 -17.8 °C -18 °C 34097 hPa SSE 2.3 km/h 12.9 km/h 97 % 0 mm
19:55 -17.8 °C -18 °C 34097 hPa Calm   7.7 km/h 97 % 0 mm
20:01 -17.8 °C -18 °C 34097 hPa ESE 7.6 km/h 10.3 km/h 97 % 0 mm
20:07 -17.8 °C -18 °C 34097 hPa Calm   10.3 km/h 97 % 0 mm
20:13 -17.8 °C -18 °C 34107.2 hPa SSW 5.1 km/h 10.3 km/h 97 % 0 mm
20:19 -17.7 °C -17.9 °C 34107.2 hPa Calm   7.7 km/h 97 % 0 mm
20:25 -17.7 °C -17.9 °C 34107.2 hPa Calm   2.6 km/h 97 % 0 mm
20:31 -17.7 °C -17.9 °C 34107.2 hPa SSE 2.3 km/h 10.3 km/h 97 % 0 mm
20:37 -17.7 °C -17.9 °C 34107.2 hPa SSW 2.3 km/h 5.1 km/h 97 % 0 mm
20:43 -17.7 °C -17.9 °C 34107.2 hPa Calm   2.6 km/h 97 % 0 mm
20:49 -17.8 °C -18 °C 34107.2 hPa Calm   2.6 km/h 97 % 0 mm
20:55 -17.7 °C -17.9 °C 34120.7 hPa Calm   2.6 km/h 97 % 0 mm
21:01 -17.8 °C -18 °C 34120.7 hPa Calm     97 % 0 mm
21:07 -17.8 °C -18 °C 34120.7 hPa Calm     97 % 0 mm
21:13 -17.8 °C -18 °C 34120.7 hPa Calm     97 % 0 mm
21:19 -17.8 °C -18 °C 34120.7 hPa Calm     97 % 0 mm
21:25 -17.8 °C -18 °C 34120.7 hPa Calm     97 % 0 mm
21:31 -17.8 °C -18 °C 34130.9 hPa Calm     97 % 0 mm
21:37 -17.8 °C -18 °C 34130.9 hPa Calm     97 % 0 mm
21:43 -17.8 °C -18 °C 34130.9 hPa Calm     97 % 0 mm
21:49 -17.7 °C -17.9 °C 34144.4 hPa Calm     97 % 0 mm
21:55 -17.7 °C -17.9 °C 34144.4 hPa Calm     97 % 0 mm
22:03 -17.8 °C -18 °C 34144.4 hPa Calm     97 % 0 mm
22:09 -17.8 °C -18 °C 34144.4 hPa Calm     97 % 0 mm
22:15 -17.7 °C -17.9 °C 34144.4 hPa Calm     97 % 0 mm
22:21 -17.8 °C -18 °C 34144.4 hPa Calm     97 % 0 mm
22:27 -17.8 °C -18 °C 34154.6 hPa Calm     97 % 0 mm
22:33 -17.8 °C -18 °C 34154.6 hPa Calm     97 % 0 mm
22:40 -17.8 °C -18 °C 34154.6 hPa Calm     97 % 0 mm
22:45 -17.8 °C -18 °C 34154.6 hPa Calm     97 % 0 mm
22:51 -17.7 °C -17.9 °C 34154.6 hPa Calm     97 % 0 mm
22:58 -17.8 °C -18 °C 34154.6 hPa Calm     97 % 0 mm
23:04 -17.7 °C -17.9 °C 34154.6 hPa Calm     97 % 0 mm
23:10 -17.7 °C -17.9 °C 34164.7 hPa Calm     97 % 0 mm
23:16 -17.7 °C -17.9 °C 34164.7 hPa Calm     97 % 0 mm
23:22 -17.7 °C -17.9 °C 34164.7 hPa Calm     97 % 0 mm
23:28 -17.7 °C -17.9 °C 34164.7 hPa Calm     97 % 0 mm
23:34 -17.7 °C -17.9 °C 34164.7 hPa Calm     97 % 0 mm
23:40 -17.7 °C -17.9 °C 34178.3 hPa Calm     97 % 0 mm
23:46 -17.7 °C -17.9 °C 34178.3 hPa Calm     97 % 0 mm
23:52 -17.6 °C -17.8 °C 34178.3 hPa Calm     97 % 0 mm
23:58 -17.6 °C -17.8 °C 34178.3 hPa Calm     97 % 0 mm
Meteo18
Compliments of Weather Underground - 4 mb

Script developed by  Jim McMurry - jmcmurry@mwt.net Adapted for the template by  Wim van der Kuil - Leuven-Template.eu

You find our weather info also at:

European Weather Network

Weather Underground

Equipment we use:

Weather-station
Davis Vue

Weather-program
Meteobridge

Weather-server
Raspberry PI 2 B+

Provider
1 and 1

Davis Vue

Meteobridge

Raspberry PI 2 B+

1 and 1